Portada
METAR-TAF:

METAR-TAF

Aeroports :

Johnson County Airport

Buffalo, Wyoming, Estats Units d'Amèrica

latitud: 44-22-53N, longitud: 106-43-08W, altitud: 1514 m

Observació

L'informe es va fer fa 47 minuts, a les 12:53 UTC
Vent 6 kt del Oest/Nord-Oest
Temperatura 2°C
Humitat 40%
Pressió 1014 hPa
Visibilitat: 16.1 km
Cel clar

METAR: KBYG 301253Z AUTO 29006KT 10SM CLR 02/M10 A2993 RMK AO2 SLP131 T00221100

Hora: 07:40 (13:40 UTC)


TAF: manca

Observacions i pronòstics meteorològics de més de 4000 aeroports (METAR i TAF).

Les estacions disponibles són els punts grocs i vermells al mapa.

Posi el ratolí al punt desitjat per veure el nom de l'estació.

Feu clic per veure les observacions i els pronòstics meteorològics.

Per canviar el mapa: feu clic els botons verds amb una creu de color negre per apropar; al botó verd amb un guió per allunyar la imatge; o en les fletxes verdes per a mapes adjacents.


METAR-TAF: